Alts de Belgica, Puerto Rico
Current Conditions -  °F | °C
As of 11:50 PM on Sunday 19 Oct 2014 (Local Time) from TJBQ Reporting Station
Clear Clear  
Wind Chill: 75°   Ceiling: Unl
Heat Index: 75°   Visibility: 10mi
Dew Point: 72°   Wind: 0mph
Humidity: 89%   Direction: NA
Pressure: 29.98"   Gusts: NA
Location:  17.9714°N, 66.9064°W
Report Text: TJBQ 200350Z 00000KT 10SM SKC 24/22 A2998 RMK RWY 8 ATIS Y
Loading
Personal Weather Stations






























Interactive Weather Map
Tropical Storm Tracking
New forecast layout! Learn more

10-Day Weather Forecast

Advertisements
Track Severe Weather on mobile